createdAt,value
2019-05-20T00:00:44.688Z,20.50
2019-05-20T00:03:31.443Z,16.30
2019-05-20T00:05:58.827Z,17.87
2019-05-20T00:08:26.338Z,19.23
2019-05-20T00:10:54.032Z,17.87
2019-05-20T00:13:21.416Z,20.50
2019-05-20T00:15:48.589Z,17.20
2019-05-20T00:18:16.282Z,19.63
2019-05-20T00:20:43.966Z,17.93
2019-05-20T00:23:11.128Z,17.00
2019-05-20T00:25:38.266Z,17.77
2019-05-20T00:28:05.428Z,17.30
2019-05-20T00:30:33.267Z,16.37
2019-05-20T00:33:00.463Z,16.07
2019-05-20T00:35:27.636Z,15.30
2019-05-20T00:37:54.932Z,16.53
2019-05-20T00:40:41.501Z,16.20
2019-05-20T00:43:08.902Z,14.57
2019-05-20T00:45:36.580Z,14.07
2019-05-20T00:48:04.286Z,17.27
2019-05-20T00:50:51.390Z,15.23
2019-05-20T00:53:18.520Z,16.03
2019-05-20T00:55:45.665Z,15.67
2019-05-20T00:58:12.851Z,16.07
2019-05-20T01:00:40.564Z,15.97
2019-05-20T01:03:27.267Z,18.70
2019-05-20T01:05:54.791Z,17.67
2019-05-20T01:08:22.229Z,18.57
2019-05-20T01:10:49.577Z,19.27
2019-05-20T01:13:16.835Z,17.20
2019-05-20T01:15:44.618Z,19.93
2019-05-20T01:18:31.256Z,23.23
2019-05-20T01:20:58.799Z,20.73
2019-05-20T01:23:25.700Z,17.97
2019-05-20T01:26:12.766Z,20.13
2019-05-20T01:28:39.952Z,21.13
2019-05-20T01:31:07.820Z,18.07
2019-05-20T01:33:35.562Z,19.70
2019-05-20T01:36:03.094Z,19.90
2019-05-20T01:38:30.425Z,19.70
2019-05-20T01:40:57.617Z,18.47
2019-05-20T01:43:44.383Z,18.10
2019-05-20T01:46:11.472Z,18.00
2019-05-20T01:48:38.862Z,17.13
2019-05-20T01:51:06.618Z,15.03
2019-05-20T01:53:33.804Z,17.07
2019-05-20T01:56:01.041Z,17.97
2019-05-20T01:58:28.312Z,14.87
2019-05-20T02:01:14.939Z,18.53
2019-05-20T02:03:42.174Z,16.57
2019-05-20T02:06:09.936Z,16.07
2019-05-20T02:08:37.390Z,17.70
2019-05-20T02:11:04.433Z,20.77
2019-05-20T02:13:57.041Z,18.87
2019-05-20T02:16:24.498Z,17.53
2019-05-20T02:18:52.033Z,17.63
2019-05-20T02:21:19.540Z,18.60
2019-05-20T02:23:46.549Z,18.63
2019-05-20T02:26:13.724Z,18.43
2019-05-20T02:29:00.345Z,17.93
2019-05-20T02:31:27.413Z,18.60
2019-05-20T02:33:54.557Z,14.77
2019-05-20T02:36:21.805Z,16.93
2019-05-20T02:38:49.506Z,18.57
2019-05-20T02:41:18.474Z,17.60
2019-05-20T02:43:45.606Z,17.57
2019-05-20T02:46:13.531Z,16.13
2019-05-20T02:48:42.294Z,18.80
2019-05-20T02:51:09.773Z,17.47
2019-05-20T02:53:37.266Z,18.57
2019-05-20T02:56:04.347Z,16.83
2019-05-20T02:58:39.895Z,19.40
2019-05-20T03:01:07.182Z,18.40
2019-05-20T03:03:34.385Z,16.50
2019-05-20T03:06:01.833Z,18.53
2019-05-20T03:08:29.602Z,18.27
2019-05-20T03:10:56.824Z,17.70
2019-05-20T03:13:24.192Z,16.83
2019-05-20T03:15:51.657Z,18.87
2019-05-20T03:18:19.393Z,17.60
2019-05-20T03:20:46.718Z,15.67
2019-05-20T03:23:33.509Z,16.23
2019-05-20T03:26:00.825Z,15.57
2019-05-20T03:28:28.216Z,18.07
2019-05-20T03:30:56.054Z,17.07
2019-05-20T03:33:23.243Z,14.03
2019-05-20T03:35:50.237Z,14.90
2019-05-20T03:38:17.505Z,14.53
2019-05-20T03:40:45.468Z,13.30
2019-05-20T03:43:12.866Z,15.43
2019-05-20T03:45:39.981Z,13.40
2019-05-20T03:48:07.359Z,15.00
2019-05-20T03:50:34.780Z,15.10
2019-05-20T03:53:02.606Z,13.73
2019-05-20T03:55:29.986Z,12.73
2019-05-20T03:57:57.384Z,10.50
2019-05-20T04:00:42.549Z,12.03
2019-05-20T04:03:09.570Z,12.30
2019-05-20T04:05:36.623Z,10.93
2019-05-20T04:08:04.005Z,11.67
2019-05-20T04:10:51.742Z,11.83
2019-05-20T04:13:19.441Z,11.50
2019-05-20T04:15:46.836Z,11.93
2019-05-20T04:18:14.102Z,12.27
2019-05-20T04:20:41.367Z,14.60
2019-05-20T04:23:08.910Z,12.73
2019-05-20T04:25:36.385Z,13.23
2019-05-20T04:28:03.671Z,15.33
2019-05-20T04:30:50.293Z,15.10
2019-05-20T04:33:17.626Z,18.47
2019-05-20T04:35:44.666Z,15.50
2019-05-20T04:38:13.788Z,17.23
2019-05-20T04:40:41.184Z,16.43
2019-05-20T04:43:08.413Z,18.63
2019-05-20T04:45:35.940Z,17.90
2019-05-20T04:48:22.608Z,16.97
2019-05-20T04:50:50.267Z,19.80
2019-05-20T04:53:17.402Z,19.50
2019-05-20T04:55:44.576Z,18.37
2019-05-20T04:58:11.978Z,19.07
2019-05-20T05:00:51.870Z,20.80
2019-05-20T05:03:20.349Z,18.47
2019-05-20T05:05:49.833Z,18.20
2019-05-20T05:08:17.313Z,19.53
2019-05-20T05:10:44.671Z,19.10
2019-05-20T05:13:12.103Z,23.13
2019-05-20T05:15:39.806Z,18.40
2019-05-20T05:18:07.579Z,22.23
2019-05-20T05:20:36.398Z,22.03
2019-05-20T05:23:12.577Z,17.87
2019-05-20T05:25:39.975Z,20.83
2019-05-20T05:28:07.376Z,17.07
2019-05-20T05:30:35.067Z,14.60
2019-05-20T05:33:02.317Z,17.77
2019-05-20T05:35:30.544Z,19.83
2019-05-20T05:37:59.785Z,15.30
2019-05-20T05:40:47.169Z,15.17
2019-05-20T05:43:14.837Z,14.17
2019-05-20T05:45:42.384Z,14.70
2019-05-20T05:48:09.851Z,12.37
2019-05-20T05:50:57.175Z,11.93
2019-05-20T05:53:26.922Z,12.87
2019-05-20T05:55:54.647Z,14.10
2019-05-20T05:58:24.006Z,13.90
2019-05-20T06:00:51.717Z,13.90
2019-05-20T06:03:19.170Z,12.10
2019-05-20T06:05:46.306Z,11.67
2019-05-20T06:08:13.662Z,13.07
2019-05-20T06:10:41.280Z,11.30
2019-05-20T06:13:08.773Z,11.67
2019-05-20T06:15:35.990Z,12.13
2019-05-20T06:18:03.233Z,12.40
2019-05-20T06:20:30.802Z,11.03
2019-05-20T06:22:57.979Z,10.03
2019-05-20T06:25:25.240Z,11.73
2019-05-20T06:27:53.068Z,9.80
2019-05-20T06:30:27.464Z,9.83
2019-05-20T06:32:54.534Z,12.30
2019-05-20T06:35:22.317Z,9.17
2019-05-20T06:37:53.541Z,10.73
2019-05-20T06:40:40.352Z,10.70
2019-05-20T06:43:09.229Z,11.10
2019-05-20T06:45:56.170Z,9.40
2019-05-20T06:48:23.553Z,11.93
2019-05-20T06:50:50.942Z,9.57
2019-05-20T06:53:18.678Z,12.37
2019-05-20T06:55:46.137Z,13.93
2019-05-20T06:58:13.421Z,13.17
2019-05-20T07:00:40.816Z,13.77
2019-05-20T07:03:27.718Z,10.90
2019-05-20T07:06:14.549Z,10.83
2019-05-20T07:08:41.954Z,12.67
2019-05-20T07:11:28.736Z,10.27
2019-05-20T07:13:56.198Z,9.97
2019-05-20T07:16:23.822Z,11.03
2019-05-20T07:18:51.270Z,10.77
2019-05-20T07:21:18.697Z,9.90
2019-05-20T07:23:46.132Z,10.83
2019-05-20T07:26:13.930Z,9.67
2019-05-20T07:28:41.636Z,10.80
2019-05-20T07:31:09.069Z,10.37
2019-05-20T07:33:56.062Z,9.47
2019-05-20T07:36:23.405Z,9.97
2019-05-20T07:38:50.734Z,9.93
2019-05-20T07:41:18.020Z,10.97
2019-05-20T07:43:45.547Z,9.37
2019-05-20T07:46:12.932Z,9.53
2019-05-20T07:48:40.320Z,8.13
2019-05-20T07:51:08.095Z,6.47
2019-05-20T07:53:36.147Z,8.87
2019-05-20T07:56:06.802Z,6.97
2019-05-20T07:58:54.449Z,7.03
2019-05-20T08:01:21.905Z,8.17
2019-05-20T08:03:49.090Z,7.70
2019-05-20T08:06:16.914Z,9.77
2019-05-20T08:08:44.683Z,8.03
2019-05-20T08:11:12.102Z,8.40
2019-05-20T08:13:58.971Z,9.57
2019-05-20T08:16:26.430Z,8.37
2019-05-20T08:18:53.808Z,8.47
2019-05-20T08:21:21.650Z,8.50
2019-05-20T08:24:08.918Z,8.90
2019-05-20T08:26:36.909Z,11.67
2019-05-20T08:29:04.124Z,9.80
2019-05-20T08:31:31.511Z,10.43
2019-05-20T08:33:59.166Z,10.93
2019-05-20T08:36:26.808Z,9.60
2019-05-20T08:38:54.331Z,10.90
2019-05-20T08:41:21.753Z,12.03
2019-05-20T08:43:48.969Z,10.83
2019-05-20T08:46:18.484Z,11.07
2019-05-20T08:48:45.551Z,9.57
2019-05-20T08:51:14.062Z,13.13
2019-05-20T08:53:41.938Z,10.20
2019-05-20T08:56:29.147Z,7.63
2019-05-20T08:58:56.528Z,8.87
2019-05-20T09:01:23.877Z,7.80
2019-05-20T09:03:51.308Z,11.00
2019-05-20T09:06:20.822Z,7.73
2019-05-20T09:09:11.372Z,8.07
2019-05-20T09:11:37.217Z,8.73
2019-05-20T09:14:05.032Z,9.73
2019-05-20T09:16:33.665Z,9.60
2019-05-20T09:19:00.823Z,8.03
2019-05-20T09:21:28.537Z,8.13
2019-05-20T09:24:19.119Z,7.63
2019-05-20T09:26:46.420Z,9.33
2019-05-20T09:29:13.787Z,8.37
2019-05-20T09:31:41.651Z,10.63
2019-05-20T09:34:08.822Z,7.63
2019-05-20T09:36:36.210Z,8.70
2019-05-20T09:39:05.286Z,8.80
2019-05-20T09:41:32.648Z,8.73
2019-05-20T09:44:00.181Z,8.93
2019-05-20T09:46:27.285Z,8.63
2019-05-20T09:48:55.013Z,10.67
2019-05-20T09:51:22.821Z,9.97
2019-05-20T09:53:50.156Z,8.17
2019-05-20T09:56:17.174Z,8.83
2019-05-20T09:58:44.452Z,8.83
2019-05-20T10:01:12.101Z,10.73
2019-05-20T10:03:39.417Z,10.47
2019-05-20T10:06:06.689Z,9.13
2019-05-20T10:08:40.928Z,10.60
2019-05-20T10:11:02.921Z,11.20
2019-05-20T10:13:30.221Z,11.37
2019-05-20T10:15:58.157Z,11.63
2019-05-20T10:18:36.808Z,11.77
2019-05-20T10:20:54.773Z,12.40
2019-05-20T10:23:41.519Z,12.17
2019-05-20T10:26:08.867Z,12.53
2019-05-20T10:28:36.182Z,15.23
2019-05-20T10:31:03.532Z,16.13
2019-05-20T10:33:50.766Z,17.63
2019-05-20T10:36:18.174Z,15.40
2019-05-20T10:38:57.421Z,17.40
2019-05-20T10:41:14.796Z,15.20
2019-05-20T10:43:42.126Z,16.23
2019-05-20T10:46:09.500Z,16.47
2019-05-20T10:48:36.828Z,16.57
2019-05-20T10:51:04.582Z,14.87
2019-05-20T10:53:31.996Z,15.87
2019-05-20T10:55:59.444Z,15.83
2019-05-20T10:58:27.068Z,14.00
2019-05-20T11:01:02.575Z,14.57
2019-05-20T11:03:23.932Z,19.93
2019-05-20T11:06:10.643Z,17.37
2019-05-20T11:08:37.885Z,16.03
2019-05-20T11:11:05.638Z,17.30
2019-05-20T11:13:33.276Z,18.13
2019-05-20T11:16:00.563Z,14.40
2019-05-20T11:18:27.936Z,15.60
2019-05-20T11:21:14.803Z,13.17
2019-05-20T11:23:43.546Z,17.23
2019-05-20T11:26:10.803Z,16.43
2019-05-20T11:28:38.087Z,16.80
2019-05-20T11:31:05.235Z,14.93
2019-05-20T11:33:32.983Z,13.97
2019-05-20T11:36:00.671Z,15.50
2019-05-20T11:38:27.845Z,16.47
2019-05-20T11:40:55.224Z,16.50
2019-05-20T11:43:42.075Z,18.80
2019-05-20T11:46:28.718Z,18.53
2019-05-20T11:48:55.926Z,17.17
2019-05-20T11:51:23.302Z,20.63
2019-05-20T11:53:50.921Z,23.07
2019-05-20T11:56:38.030Z,19.23
2019-05-20T11:59:05.854Z,21.10
2019-05-20T12:01:33.005Z,21.77
2019-05-20T12:04:00.378Z,20.67
2019-05-20T12:06:27.806Z,28.60
2019-05-20T12:08:55.855Z,19.17
2019-05-20T12:11:23.282Z,20.40
2019-05-20T12:13:50.627Z,18.67
2019-05-20T12:16:18.421Z,16.47
2019-05-20T12:18:45.868Z,19.27
2019-05-20T12:21:13.137Z,22.63
2019-05-20T12:23:40.480Z,25.30
2019-05-20T12:26:08.091Z,25.07
2019-05-20T12:28:35.767Z,24.90
2019-05-20T12:31:03.117Z,27.60
2019-05-20T12:33:30.495Z,24.87
2019-05-20T12:35:58.261Z,25.07
2019-05-20T12:38:25.820Z,22.40
2019-05-20T12:40:52.987Z,18.57
2019-05-20T12:43:20.301Z,19.77
2019-05-20T12:45:47.342Z,24.37
2019-05-20T12:48:14.869Z,22.13
2019-05-20T12:50:42.336Z,22.27
2019-05-20T12:53:09.487Z,26.00
2019-05-20T12:55:36.637Z,22.17
2019-05-20T12:58:04.398Z,28.47
2019-05-20T13:00:31.889Z,26.47
2019-05-20T13:02:59.124Z,25.47
2019-05-20T13:05:26.382Z,26.60
2019-05-20T13:07:54.384Z,26.47
2019-05-20T13:10:29.867Z,26.77
2019-05-20T13:12:51.247Z,22.33
2019-05-20T13:15:19.080Z,25.67
2019-05-20T13:17:46.541Z,27.23
2019-05-20T13:20:13.914Z,25.73
2019-05-20T13:23:00.832Z,20.13
2019-05-20T13:25:28.529Z,19.13
2019-05-20T13:27:55.669Z,23.83
2019-05-20T13:30:23.446Z,24.90
2019-05-20T13:32:50.558Z,25.77
2019-05-20T13:35:18.101Z,29.70
2019-05-20T13:37:45.565Z,28.87
2019-05-20T13:40:13.137Z,25.40
2019-05-20T13:42:40.402Z,27.57
2019-05-20T13:45:07.860Z,28.83
2019-05-20T13:47:35.229Z,27.47
2019-05-20T13:50:04.549Z,34.37
2019-05-20T13:52:31.817Z,33.93
2019-05-20T13:55:19.337Z,37.67
2019-05-20T13:57:46.545Z,35.30
2019-05-20T14:00:14.455Z,35.87
2019-05-20T14:02:41.883Z,34.40
2019-05-20T14:05:08.960Z,38.93
2019-05-20T14:07:36.249Z,34.37
2019-05-20T14:10:04.090Z,37.87
2019-05-20T14:12:31.870Z,38.60
2019-05-20T14:14:59.248Z,36.73
2019-05-20T14:17:26.335Z,38.03
2019-05-20T14:19:54.233Z,42.20
2019-05-20T14:22:21.602Z,37.97
2019-05-20T14:24:50.798Z,41.47
2019-05-20T14:27:18.512Z,36.60
2019-05-20T14:29:45.879Z,34.60
2019-05-20T14:32:13.250Z,35.43
2019-05-20T14:34:40.448Z,37.53
2019-05-20T14:37:08.073Z,35.73
2019-05-20T14:39:35.678Z,38.90
2019-05-20T14:42:02.934Z,30.30
2019-05-20T14:44:30.175Z,27.73
2019-05-20T14:46:58.098Z,29.67
2019-05-20T14:49:25.653Z,33.90
2019-05-20T14:51:53.343Z,31.17
2019-05-20T14:54:20.628Z,34.70
2019-05-20T14:56:47.775Z,25.53
2019-05-20T14:59:15.615Z,25.33
2019-05-20T15:01:42.955Z,24.63
2019-05-20T15:04:10.351Z,22.23
2019-05-20T15:06:37.928Z,26.17
2019-05-20T15:09:06.077Z,20.57
2019-05-20T15:11:37.990Z,18.57
2019-05-20T15:14:02.851Z,20.67
2019-05-20T15:16:30.581Z,15.07
2019-05-20T15:18:58.167Z,18.03
2019-05-20T15:21:29.082Z,19.00
2019-05-20T15:23:55.199Z,13.40
2019-05-20T15:26:22.707Z,12.77
2019-05-20T15:29:25.469Z,12.30
2019-05-20T15:31:38.965Z,13.40
2019-05-20T15:34:06.255Z,13.70
2019-05-20T15:36:34.024Z,12.80
2019-05-20T15:39:01.397Z,13.73
2019-05-20T15:41:48.533Z,12.40
2019-05-20T15:44:15.968Z,13.13
2019-05-20T15:46:43.264Z,14.60
2019-05-20T15:49:10.941Z,14.17
2019-05-20T15:51:38.797Z,14.60
2019-05-20T15:54:05.924Z,12.10
2019-05-20T15:56:33.210Z,15.57
2019-05-20T15:59:00.571Z,18.57
2019-05-20T16:01:28.485Z,15.60
2019-05-20T16:03:56.374Z,16.63
2019-05-20T16:06:23.803Z,15.20
2019-05-20T16:08:54.312Z,15.43
2019-05-20T16:11:21.610Z,18.63
2019-05-20T16:13:49.014Z,17.53
2019-05-20T16:16:16.102Z,16.70
2019-05-20T16:18:43.286Z,16.37
2019-05-20T16:21:11.144Z,15.90
2019-05-20T16:24:00.327Z,17.77
2019-05-20T16:26:29.956Z,20.07
2019-05-20T16:28:56.864Z,19.33
2019-05-20T16:31:43.734Z,21.63
2019-05-20T16:34:11.168Z,22.00
2019-05-20T16:36:38.387Z,23.97
2019-05-20T16:39:25.347Z,27.30
2019-05-20T16:41:52.396Z,16.07
2019-05-20T16:44:19.894Z,19.93
2019-05-20T16:46:47.711Z,22.03
2019-05-20T16:49:15.926Z,20.27
2019-05-20T16:51:43.411Z,16.43
2019-05-20T16:54:11.040Z,17.80
2019-05-20T16:56:38.831Z,16.13
2019-05-20T16:59:06.610Z,17.87
2019-05-20T17:01:45.516Z,17.73
2019-05-20T17:04:03.705Z,17.37
2019-05-20T17:06:31.685Z,18.63
2019-05-20T17:08:59.097Z,18.20
2019-05-20T17:11:26.390Z,20.13
2019-05-20T17:13:56.420Z,16.03
2019-05-20T17:16:23.822Z,17.00
2019-05-20T17:18:51.489Z,15.20
2019-05-20T17:21:18.678Z,14.57
2019-05-20T17:23:46.654Z,15.57
2019-05-20T17:26:14.494Z,13.27
2019-05-20T17:28:41.724Z,14.57
2019-05-20T17:31:09.134Z,12.10
2019-05-20T17:33:36.513Z,13.43
2019-05-20T17:36:04.281Z,9.47
2019-05-20T17:38:31.869Z,10.67
2019-05-20T17:40:59.189Z,14.20
2019-05-20T17:43:26.361Z,13.13
2019-05-20T17:45:53.732Z,15.23
2019-05-20T17:48:40.296Z,14.37
2019-05-20T17:51:07.487Z,13.30
2019-05-20T17:53:34.865Z,16.47
2019-05-20T17:56:02.503Z,15.40
2019-05-20T17:58:30.274Z,15.63
2019-05-20T18:01:12.177Z,14.37
2019-05-20T18:03:27.136Z,19.33
2019-05-20T18:05:54.809Z,18.13
2019-05-20T18:08:45.776Z,13.57
2019-05-20T18:11:13.682Z,17.10
2019-05-20T18:13:41.212Z,21.37
2019-05-20T18:16:08.582Z,20.13
2019-05-20T18:18:35.956Z,18.73
2019-05-20T18:21:03.362Z,22.90
2019-05-20T18:23:31.168Z,24.37
2019-05-20T18:25:58.861Z,20.23
2019-05-20T18:28:26.171Z,19.17
2019-05-20T18:30:53.547Z,16.53
2019-05-20T18:33:21.243Z,21.93
2019-05-20T18:35:49.353Z,16.10
2019-05-20T18:38:16.584Z,18.27
2019-05-20T18:40:43.833Z,18.17
2019-05-20T18:43:11.296Z,19.80
2019-05-20T18:45:38.761Z,17.40
2019-05-20T18:48:06.734Z,22.20
2019-05-20T18:50:34.090Z,20.17
2019-05-20T18:53:21.113Z,20.43
2019-05-20T18:55:48.572Z,24.57
2019-05-20T18:58:15.801Z,23.57
2019-05-20T19:00:42.965Z,21.23
2019-05-20T19:03:10.381Z,23.67
2019-05-20T19:05:38.056Z,22.23
2019-05-20T19:08:05.738Z,24.47
2019-05-20T19:10:32.851Z,25.93
2019-05-20T19:13:00.306Z,25.33
2019-05-20T19:15:27.555Z,34.13
2019-05-20T19:17:55.673Z,28.47
2019-05-20T19:20:23.472Z,24.23
2019-05-20T19:22:50.927Z,25.53
2019-05-20T19:25:17.939Z,30.33
2019-05-20T19:27:45.173Z,25.67
2019-05-20T19:30:12.717Z,28.07
2019-05-20T19:32:40.359Z,28.43
2019-05-20T19:35:08.156Z,23.50
2019-05-20T19:37:35.652Z,22.77
2019-05-20T19:40:03.677Z,22.40
2019-05-20T19:42:50.586Z,25.93
2019-05-20T19:45:18.022Z,21.70
2019-05-20T19:47:46.885Z,26.50
2019-05-20T19:50:14.206Z,24.43
2019-05-20T19:53:01.004Z,26.87
2019-05-20T19:55:41.786Z,24.60
2019-05-20T19:58:09.295Z,27.13
2019-05-20T20:00:36.623Z,28.13
2019-05-20T20:03:04.013Z,29.40
2019-05-20T20:05:32.663Z,26.07
2019-05-20T20:08:00.078Z,30.97
2019-05-20T20:10:28.787Z,29.13
2019-05-20T20:13:15.539Z,35.93
2019-05-20T20:15:43.002Z,34.27
2019-05-20T20:18:10.955Z,31.03
2019-05-20T20:20:38.354Z,27.07
2019-05-20T20:23:05.701Z,30.33
2019-05-20T20:25:32.930Z,27.27
2019-05-20T20:28:00.710Z,30.93
2019-05-20T20:30:28.462Z,26.87
2019-05-20T20:32:55.733Z,29.17
2019-05-20T20:35:37.268Z,28.13
2019-05-20T20:37:52.630Z,34.20
2019-05-20T20:40:20.345Z,26.70
2019-05-20T20:42:47.721Z,26.67
2019-05-20T20:45:15.515Z,32.67
2019-05-20T20:47:43.232Z,29.17
2019-05-20T20:50:10.364Z,31.67
2019-05-20T20:52:37.759Z,29.67
2019-05-20T20:55:24.656Z,29.17
2019-05-20T20:57:52.058Z,29.40
2019-05-20T21:00:19.199Z,35.30
2019-05-20T21:02:53.298Z,23.77
2019-05-20T21:05:16.076Z,24.93
2019-05-20T21:07:43.652Z,31.10
2019-05-20T21:10:30.519Z,26.03
2019-05-20T21:13:17.359Z,25.33
2019-05-20T21:15:44.745Z,27.63
2019-05-20T21:18:12.026Z,28.90
2019-05-20T21:20:39.686Z,27.40
2019-05-20T21:23:07.495Z,25.70
2019-05-20T21:25:34.973Z,26.00
2019-05-20T21:28:02.127Z,23.67
2019-05-20T21:30:29.840Z,26.73
2019-05-20T21:33:16.654Z,26.67
2019-05-20T21:35:57.141Z,23.37
2019-05-20T21:38:24.744Z,26.53
2019-05-20T21:41:12.617Z,23.63
2019-05-20T21:44:01.295Z,23.67
2019-05-20T21:46:29.521Z,24.60
2019-05-20T21:48:57.069Z,28.03
2019-05-20T21:51:24.575Z,24.43
2019-05-20T21:54:11.524Z,27.43
2019-05-20T21:56:39.022Z,25.53
2019-05-20T21:59:06.815Z,20.40
2019-05-20T22:01:35.402Z,25.20
2019-05-20T22:04:02.898Z,21.67
2019-05-20T22:06:30.374Z,25.80
2019-05-20T22:08:58.266Z,25.57
2019-05-20T22:11:45.627Z,22.83
2019-05-20T22:14:13.121Z,24.17
2019-05-20T22:17:00.468Z,23.70
2019-05-20T22:19:27.858Z,24.83
2019-05-20T22:22:01.524Z,23.33
2019-05-20T22:24:29.317Z,23.00
2019-05-20T22:26:57.157Z,22.23
2019-05-20T22:29:24.580Z,22.27
2019-05-20T22:31:51.974Z,19.10
2019-05-20T22:34:19.769Z,23.27
2019-05-20T22:36:47.167Z,20.80
2019-05-20T22:39:34.381Z,22.23
2019-05-20T22:42:01.897Z,17.67
2019-05-20T22:44:29.341Z,18.87
2019-05-20T22:46:57.353Z,18.33
2019-05-20T22:49:25.313Z,15.57
2019-05-20T22:52:12.559Z,14.77
2019-05-20T22:54:40.022Z,13.43
2019-05-20T22:57:07.493Z,14.17
2019-05-20T22:59:35.421Z,13.30
2019-05-20T23:02:03.418Z,12.90
2019-05-20T23:04:30.835Z,11.93
2019-05-20T23:06:58.437Z,12.90
2019-05-20T23:09:26.310Z,9.27
2019-05-20T23:12:13.241Z,11.80
2019-05-20T23:14:41.145Z,11.30
2019-05-20T23:17:08.653Z,9.77
2019-05-20T23:19:36.028Z,8.80
2019-05-20T23:22:22.993Z,10.50
2019-05-20T23:24:50.480Z,9.93
2019-05-20T23:27:17.976Z,11.30
2019-05-20T23:29:45.932Z,9.90
2019-05-20T23:32:13.388Z,9.73
2019-05-20T23:34:40.769Z,10.13
2019-05-20T23:37:21.185Z,9.23
2019-05-20T23:42:33.670Z,10.80
2019-05-20T23:45:01.487Z,11.10
2019-05-20T23:47:48.657Z,9.40
2019-05-20T23:50:35.666Z,11.50
2019-05-20T23:53:03.560Z,11.17
2019-05-20T23:55:31.149Z,10.90
2019-05-20T23:57:58.518Z,12.73
